Time;durP1;ratioP1;P1;durP2;ratioP2;P2;SDS_P1;SDS_P2;PMS_P1;PMS_P2;Temp;Humidity;BMP_temperature;BMP_pressure;BME280_temperature;BME280_humidity;BME280_pressure;Samples;Min_cycle;Max_cycle;Signal;HPM_P1;HPM_P2
2022/11/26 00:00:38;;;;;;;46.10;22.75;;;5.50;99.90;;;;;;5081109;28;20044;-58
2022/11/26 00:03:04;;;;;;;36.60;19.70;;;5.80;99.90;;;;;;5082196;28;20040;-58
2022/11/26 00:05:30;;;;;;;36.50;19.70;;;5.70;99.90;;;;;;5074627;28;20089;-58
2022/11/26 00:07:57;;;;;;;40.15;20.48;;;5.70;99.90;;;;;;5062953;28;20045;-57
2022/11/26 00:10:26;;;;;;;41.67;22.00;;;5.40;99.90;;;;;;5060817;28;20488;-58
2022/11/26 00:12:52;;;;;;;41.90;21.13;;;5.50;99.90;;;;;;5077026;28;20048;-56
2022/11/26 00:15:27;;;;;;;38.83;19.83;;;5.60;99.90;;;;;;5060784;28;20060;-57
2022/11/26 00:17:54;;;;;;;33.90;17.67;;;5.30;99.90;;;;;;5061950;28;20127;-58
2022/11/26 00:20:23;;;;;;;38.67;18.40;;;5.70;99.90;;;;;;5062296;28;20099;-58
2022/11/26 00:22:52;;;;;;;35.17;18.52;;;5.30;99.90;;;;;;5079926;28;20040;-56
2022/11/26 00:25:21;;;;;;;35.00;19.38;;;5.20;99.90;;;;;;5065725;28;20040;-58
2022/11/26 00:27:48;;;;;;;40.03;19.08;;;5.20;99.90;;;;;;5098104;28;20055;-57
2022/11/26 00:30:26;;;;;;;35.28;16.80;;;5.90;99.90;;;;;;5063995;28;20047;-58
2022/11/26 00:32:53;;;;;;;32.47;16.73;;;5.10;99.90;;;;;;5065308;28;20121;-58
2022/11/26 00:35:20;;;;;;;31.00;15.38;;;5.10;99.90;;;;;;5065537;28;20040;-57
2022/11/26 00:37:55;;;;;;;31.50;16.45;;;5.30;99.90;;;;;;5065018;28;20037;-58
2022/11/26 00:40:32;;;;;;;28.45;15.35;;;5.10;99.90;;;;;;5065434;28;20430;-58
2022/11/26 00:42:58;;;;;;;33.08;15.18;;;5.20;99.90;;;;;;5065412;28;20040;-57
2022/11/26 00:45:26;;;;;;;29.67;14.18;;;5.20;99.90;;;;;;5063992;28;20048;-58
2022/11/26 00:47:52;;;;;;;34.67;14.32;;;5.50;99.90;;;;;;5065126;28;20040;-56
2022/11/26 00:50:23;;;;;;;35.75;14.90;;;5.10;99.90;;;;;;5063843;28;20151;-57
2022/11/26 00:52:52;;;;;;;36.58;16.75;;;5.00;99.90;;;;;;5064375;28;20055;-56
2022/11/26 00:55:32;;;;;;;39.13;17.42;;;5.10;99.90;;;;;;5065458;28;20589;-57
2022/11/26 00:57:58;;;;;;;33.28;16.42;;;5.30;99.90;;;;;;5064875;28;20111;-58
2022/11/26 01:00:26;;;;;;;34.85;16.05;;;5.10;99.90;;;;;;5079157;28;20037;-56
2022/11/26 01:02:52;;;;;;;33.15;16.50;;;5.00;99.90;;;;;;5064897;28;20044;-56
2022/11/26 01:05:20;;;;;;;30.38;15.95;;;5.20;99.90;;;;;;5072382;28;20043;-57
2022/11/26 01:07:46;;;;;;;39.95;17.25;;;4.90;99.90;;;;;;5066454;28;20098;-58
2022/11/26 01:10:22;;;;;;;39.63;17.70;;;4.90;99.90;;;;;;5064724;28;20041;-57
2022/11/26 01:12:49;;;;;;;33.47;18.08;;;4.90;99.90;;;;;;5064907;28;20115;-57
2022/11/26 01:15:15;;;;;;;30.50;18.10;;;5.20;99.90;;;;;;5063130;28;20045;-56
2022/11/26 01:17:41;;;;;;;32.75;17.58;;;5.00;99.90;;;;;;5064733;28;20063;-56
2022/11/26 01:20:21;;;;;;;40.42;20.10;;;5.20;99.90;;;;;;5064448;28;20052;-58
2022/11/26 01:22:48;;;;;;;43.83;23.42;;;5.10;99.90;;;;;;5063825;28;20125;-58
2022/11/26 01:25:14;;;;;;;31.73;19.23;;;5.10;99.90;;;;;;5064333;28;20128;-56
2022/11/26 01:27:40;;;;;;;35.97;17.48;;;5.10;99.90;;;;;;5064455;28;20232;-57
2022/11/26 01:30:21;;;;;;;30.92;16.08;;;4.90;99.90;;;;;;5063739;28;20102;-58
2022/11/26 01:32:48;;;;;;;27.55;13.32;;;5.00;99.90;;;;;;5064662;28;20044;-58
2022/11/26 01:35:15;;;;;;;26.85;13.50;;;4.90;99.90;;;;;;5064523;28;20048;-57
2022/11/26 01:37:42;;;;;;;28.77;11.85;;;5.10;99.90;;;;;;5063573;28;20036;-57
2022/11/26 01:40:25;;;;;;;33.15;12.52;;;5.00;99.90;;;;;;5064592;28;20130;-59
2022/11/26 01:42:58;;;;;;;30.42;11.77;;;4.90;99.90;;;;;;5064391;28;20063;-57
2022/11/26 01:45:24;;;;;;;31.58;11.75;;;5.10;99.90;;;;;;5063141;28;20054;-57
2022/11/26 01:47:50;;;;;;;31.23;11.70;;;5.10;99.90;;;;;;5063867;28;20127;-58
2022/11/26 01:50:28;;;;;;;28.48;11.25;;;4.90;99.90;;;;;;5064558;28;20104;-57
2022/11/26 01:53:18;;;;;;;25.00;10.32;;;4.90;99.90;;;;;;5063819;28;20049;-57
2022/11/26 01:55:48;;;;;;;24.55;11.40;;;4.80;99.90;;;;;;5063794;28;20067;-57
2022/11/26 01:58:18;;;;;;;24.88;11.45;;;5.00;99.90;;;;;;5079305;28;20040;-58
2022/11/26 02:00:45;;;;;;;23.55;10.35;;;4.80;99.90;;;;;;5062968;28;20044;-58
2022/11/26 02:03:11;;;;;;;24.80;9.77;;;4.80;99.90;;;;;;5063855;28;20075;-57
2022/11/26 02:05:46;;;;;;;22.33;9.77;;;4.90;99.90;;;;;;5073323;28;20786;-58
2022/11/26 02:08:12;;;;;;;25.42;9.75;;;3.80;99.90;;;;;;5063646;28;20036;-58
2022/11/26 02:10:38;;;;;;;27.45;10.52;;;4.60;99.90;;;;;;5063822;28;20823;-57
2022/11/26 02:13:04;;;;;;;27.30;10.07;;;4.70;99.90;;;;;;5061278;28;20849;-56
2022/11/26 02:15:40;;;;;;;26.63;10.18;;;4.80;99.90;;;;;;5062652;28;20056;-57
2022/11/26 02:18:08;;;;;;;19.80;9.20;;;4.70;99.90;;;;;;5063828;28;20040;-56
2022/11/26 02:20:58;;;;;;;26.25;11.48;;;4.60;99.90;;;;;;5082997;28;20095;-58
2022/11/26 02:23:40;;;;;;;20.10;10.32;;;4.80;99.90;;;;;;5083988;28;20106;-56
2022/11/26 02:26:40;;;;;;;25.65;11.07;;;4.70;99.90;;;;;;5084664;28;20044;-58
2022/11/26 02:29:14;;;;;;;21.55;10.90;;;3.70;99.90;;;;;;5083282;28;20097;-57
2022/11/26 02:32:07;;;;;;;25.83;11.80;;;4.60;99.90;;;;;;5081960;28;20047;-56
2022/11/26 02:34:51;;;;;;;32.30;12.32;;;4.70;99.90;;;;;;5083279;28;20044;-57
2022/11/26 02:37:19;;;;;;;27.13;12.82;;;4.50;99.90;;;;;;5083328;28;20115;-56
2022/11/26 02:39:46;;;;;;;23.35;11.75;;;5.00;99.90;;;;;;5081106;28;20056;-58
2022/11/26 02:42:30;;;;;;;26.65;12.70;;;4.60;99.90;;;;;;5083424;28;20394;-57
2022/11/26 02:45:04;;;;;;;23.00;12.68;;;4.70;99.90;;;;;;5082445;28;20118;-56
2022/11/26 02:47:32;;;;;;;28.33;12.77;;;4.70;99.90;;;;;;5082053;28;20077;-57
2022/11/26 02:50:04;;;;;;;25.10;12.13;;;4.50;99.90;;;;;;5083481;28;20093;-58
2022/11/26 02:52:32;;;;;;;19.42;11.57;;;4.80;99.90;;;;;;5083221;28;20044;-57
2022/11/26 02:55:00;;;;;;;33.05;14.40;;;6.00;99.90;;;;;;5081041;28;20081;-57
2022/11/26 02:57:31;;;;;;;28.88;13.18;;;4.60;99.90;;;;;;5082923;28;20537;-58
2022/11/26 02:59:57;;;;;;;29.67;13.32;;;4.50;99.90;;;;;;5082350;28;20051;-57
2022/11/26 03:02:33;;;;;;;28.48;13.40;;;4.50;99.90;;;;;;5082219;28;20499;-58
2022/11/26 03:05:01;;;;;;;29.83;13.40;;;4.50;99.90;;;;;;5076649;28;20170;-56
2022/11/26 03:07:33;;;;;;;25.50;12.30;;;4.50;99.90;;;;;;5069017;28;20048;-57
2022/11/26 03:10:00;;;;;;;27.98;13.45;;;4.50;99.90;;;;;;5061784;28;20406;-57
2022/11/26 03:12:27;;;;;;;30.75;13.25;;;4.50;99.90;;;;;;5062805;28;20044;-57
2022/11/26 03:14:52;;;;;;;28.77;13.98;;;4.50;99.90;;;;;;5062072;28;20064;-58
2022/11/26 03:17:18;;;;;;;30.73;13.95;;;4.30;99.90;;;;;;5062111;28;20040;-58
2022/11/26 03:19:45;;;;;;;32.35;14.27;;;4.20;99.90;;;;;;5062515;28;20040;-59
2022/11/26 03:22:12;;;;;;;27.00;13.82;;;4.70;99.90;;;;;;5063035;28;20072;-58
2022/11/26 03:24:37;;;;;;;29.42;14.63;;;4.70;99.90;;;;;;5062712;28;20036;-57
2022/11/26 03:27:03;;;;;;;28.60;14.35;;;4.00;99.90;;;;;;5061199;28;20639;-58
2022/11/26 03:29:29;;;;;;;33.75;15.80;;;5.50;99.90;;;;;;5062522;28;20058;-58
2022/11/26 03:31:55;;;;;;;25.35;14.43;;;4.10;99.90;;;;;;5060762;28;20048;-58
2022/11/26 03:34:20;;;;;;;24.73;14.57;;;5.80;99.90;;;;;;5061811;28;20040;-58
2022/11/26 03:36:46;;;;;;;30.75;16.77;;;4.10;99.90;;;;;;5062598;28;20041;-57
2022/11/26 03:39:12;;;;;;;31.85;17.20;;;4.00;99.90;;;;;;5062568;28;20090;-57
2022/11/26 03:41:38;;;;;;;29.20;17.13;;;4.40;99.90;;;;;;5062182;28;20044;-57
2022/11/26 03:44:04;;;;;;;31.80;17.65;;;4.10;99.90;;;;;;5060962;28;20134;-57
2022/11/26 03:46:29;;;;;;;38.97;18.08;;;5.60;99.90;;;;;;5060956;28;20483;-57
2022/11/26 03:48:55;;;;;;;33.38;17.70;;;4.00;99.90;;;;;;5062204;28;20048;-58
2022/11/26 03:51:20;;;;;;;34.25;18.90;;;3.90;99.90;;;;;;5061448;28;20083;-59
2022/11/26 03:53:46;;;;;;;34.20;18.75;;;4.00;99.90;;;;;;5061108;28;20099;-58
2022/11/26 03:56:12;;;;;;;33.25;18.27;;;3.90;99.90;;;;;;5063250;28;20666;-56
2022/11/26 03:58:37;;;;;;;30.48;17.52;;;4.30;99.90;;;;;;5065701;28;20075;-58
2022/11/26 04:01:08;;;;;;;31.17;17.50;;;4.00;99.90;;;;;;5064872;28;20097;-57
2022/11/26 04:03:33;;;;;;;29.88;18.60;;;3.80;99.90;;;;;;5065133;28;20041;-56
2022/11/26 04:05:59;;;;;;;31.42;18.25;;;3.90;99.90;;;;;;5075273;28;20067;-56
2022/11/26 04:08:24;;;;;;;30.83;18.98;;;4.50;99.90;;;;;;5065737;28;20051;-57
2022/11/26 04:10:50;;;;;;;34.63;18.67;;;4.10;99.90;;;;;;5064983;28;20045;-57
2022/11/26 04:13:16;;;;;;;37.47;19.40;;;4.70;99.90;;;;;;5065765;28;20048;-58
2022/11/26 04:15:41;;;;;;;31.48;18.20;;;4.00;99.90;;;;;;5065533;28;20066;-58
2022/11/26 04:18:07;;;;;;;33.50;18.52;;;4.30;99.90;;;;;;5070305;28;20478;-57
2022/11/26 04:20:32;;;;;;;32.97;19.98;;;3.80;99.90;;;;;;5085387;28;20502;-57
2022/11/26 04:22:58;;;;;;;33.05;18.40;;;4.40;99.90;;;;;;5085951;28;20593;-56
2022/11/26 04:25:25;;;;;;;38.50;19.52;;;3.90;99.90;;;;;;5085407;28;20047;-57
2022/11/26 04:27:50;;;;;;;29.95;17.25;;;3.70;99.90;;;;;;5085777;28;20052;-58
2022/11/26 04:30:16;;;;;;;31.83;19.45;;;3.70;99.90;;;;;;5084684;28;20047;-58
2022/11/26 04:32:42;;;;;;;30.20;18.55;;;3.90;99.90;;;;;;5086214;28;20071;-58
2022/11/26 04:35:08;;;;;;;28.27;17.52;;;3.80;99.90;;;;;;5085640;28;20135;-56
2022/11/26 04:37:34;;;;;;;28.73;17.75;;;3.70;99.90;;;;;;5085198;28;20040;-58
2022/11/26 04:40:00;;;;;;;30.67;17.95;;;3.80;99.90;;;;;;5085724;28;20081;-57
2022/11/26 04:42:25;;;;;;;30.40;18.27;;;4.30;99.90;;;;;;5085486;28;20343;-58
2022/11/26 04:44:51;;;;;;;31.80;19.05;;;4.10;99.90;;;;;;5084620;28;20043;-57
2022/11/26 04:47:17;;;;;;;34.08;17.92;;;3.80;99.90;;;;;;5085020;28;20039;-57
2022/11/26 04:49:42;;;;;;;34.75;19.50;;;3.80;99.90;;;;;;5085761;28;20115;-58
2022/11/26 04:52:08;;;;;;;36.17;19.30;;;3.90;99.90;;;;;;5085321;28;20439;-57
2022/11/26 04:54:34;;;;;;;31.63;19.17;;;3.90;99.90;;;;;;5084916;28;20051;-58
2022/11/26 04:56:59;;;;;;;33.78;19.45;;;3.90;99.90;;;;;;5084546;28;20040;-57
2022/11/26 04:59:25;;;;;;;37.10;18.55;;;4.00;99.90;;;;;;5084639;28;20051;-58
2022/11/26 05:01:50;;;;;;;37.92;19.80;;;3.90;99.90;;;;;;5085257;28;20047;-58
2022/11/26 05:04:16;;;;;;;29.13;17.58;;;4.10;99.90;;;;;;5082923;28;20434;-58
2022/11/26 05:06:42;;;;;;;31.88;19.55;;;3.70;99.90;;;;;;5070855;28;20040;-57
2022/11/26 05:09:07;;;;;;;34.85;20.00;;;3.90;99.90;;;;;;5064763;28;20044;-57
2022/11/26 05:11:33;;;;;;;38.10;19.52;;;3.90;99.90;;;;;;5065290;28;20036;-57
2022/11/26 05:13:59;;;;;;;30.98;18.67;;;3.90;99.90;;;;;;5063659;28;20060;-56
2022/11/26 05:16:24;;;;;;;30.60;18.02;;;3.90;99.90;;;;;;5063897;28;20904;-58
2022/11/26 05:18:50;;;;;;;36.20;18.98;;;3.90;99.90;;;;;;5064631;28;20036;-58
2022/11/26 05:21:16;;;;;;;36.75;18.88;;;4.20;99.90;;;;;;5065167;28;20051;-57
2022/11/26 05:23:41;;;;;;;37.67;20.67;;;3.70;99.90;;;;;;5064016;28;20036;-57
2022/11/26 05:26:07;;;;;;;42.15;21.00;;;3.80;99.90;;;;;;5064041;28;20037;-58
2022/11/26 05:28:33;;;;;;;42.22;21.48;;;3.80;99.90;;;;;;5064435;28;20051;-56
2022/11/26 05:31:00;;;;;;;30.83;18.08;;;3.90;99.90;;;;;;5062423;28;20041;-57
2022/11/26 05:33:26;;;;;;;36.13;19.88;;;3.90;99.90;;;;;;5063644;28;20041;-57
2022/11/26 05:35:51;;;;;;;39.45;21.90;;;3.90;99.90;;;;;;5064177;28;20495;-58
2022/11/26 05:38:17;;;;;;;40.30;21.33;;;4.00;99.90;;;;;;5063373;28;20052;-57
2022/11/26 05:40:43;;;;;;;37.53;21.98;;;3.90;99.90;;;;;;5064010;28;20041;-58
2022/11/26 05:43:09;;;;;;;37.17;21.23;;;4.00;99.90;;;;;;5063871;28;20094;-58
2022/11/26 05:45:34;;;;;;;35.55;21.00;;;4.00;99.90;;;;;;5062097;28;20052;-58
2022/11/26 05:48:00;;;;;;;38.08;22.77;;;3.80;99.90;;;;;;5062650;28;20040;-57
2022/11/26 05:50:25;;;;;;;41.10;23.30;;;4.10;99.90;;;;;;5063167;28;20052;-58
2022/11/26 05:52:51;;;;;;;39.95;22.85;;;5.00;99.90;;;;;;5064421;28;20119;-59
2022/11/26 05:55:18;;;;;;;40.17;23.52;;;4.00;99.90;;;;;;5064081;28;20085;-57
2022/11/26 05:57:43;;;;;;;40.67;21.63;;;3.90;99.90;;;;;;5063799;28;20652;-57
2022/11/26 06:00:10;;;;;;;46.63;24.73;;;3.90;99.90;;;;;;5062135;28;20060;-56
2022/11/26 06:02:36;;;;;;;38.95;24.13;;;3.90;99.90;;;;;;5063988;28;20106;-57
2022/11/26 06:05:02;;;;;;;37.95;23.65;;;4.30;99.90;;;;;;5068960;28;20055;-57
2022/11/26 06:07:28;;;;;;;40.30;22.83;;;3.90;99.90;;;;;;5068047;28;20040;-57
2022/11/26 06:09:53;;;;;;;36.00;22.45;;;3.90;99.90;;;;;;5062622;28;20089;-58
2022/11/26 06:12:19;;;;;;;36.58;23.08;;;4.50;99.90;;;;;;5064110;28;20131;-58
2022/11/26 06:14:45;;;;;;;42.45;23.02;;;3.90;99.90;;;;;;5062473;28;20156;-57
2022/11/26 06:17:10;;;;;;;35.15;23.50;;;4.10;99.90;;;;;;5061425;28;20072;-58
2022/11/26 06:19:36;;;;;;;39.05;23.55;;;4.00;99.90;;;;;;5063274;28;20566;-58
2022/11/26 06:22:02;;;;;;;42.25;23.38;;;3.90;99.90;;;;;;5063291;28;20136;-57
2022/11/26 06:24:28;;;;;;;39.90;23.25;;;4.00;99.90;;;;;;5062549;28;20040;-56
2022/11/26 06:26:53;;;;;;;37.17;24.00;;;3.90;99.90;;;;;;5063210;28;20047;-57
2022/11/26 06:29:19;;;;;;;43.13;25.30;;;4.10;99.90;;;;;;5063408;28;20052;-57
2022/11/26 06:31:45;;;;;;;42.50;26.23;;;4.00;99.90;;;;;;5063019;28;20795;-56
2022/11/26 06:34:10;;;;;;;51.00;28.05;;;4.00;99.90;;;;;;5063241;28;20505;-57
2022/11/26 06:36:36;;;;;;;49.97;28.35;;;4.00;99.90;;;;;;5062966;28;20400;-58
2022/11/26 06:39:02;;;;;;;41.75;24.38;;;4.00;99.90;;;;;;5063221;28;20067;-58
2022/11/26 06:41:28;;;;;;;41.05;25.38;;;4.00;99.90;;;;;;5063004;28;20048;-57
2022/11/26 06:43:53;;;;;;;42.53;24.75;;;3.80;99.90;;;;;;5063228;28;20733;-58
2022/11/26 06:46:19;;;;;;;36.70;22.60;;;4.00;99.90;;;;;;5062301;28;20483;-58
2022/11/26 06:48:45;;;;;;;44.17;21.73;;;4.10;99.90;;;;;;5063028;28;20066;-57
2022/11/26 06:51:13;;;;;;;56.05;23.48;;;3.90;99.90;;;;;;5062916;28;20032;-57
2022/11/26 06:53:39;;;;;;;35.17;22.52;;;4.10;99.90;;;;;;5062439;28;20048;-58
2022/11/26 06:56:10;;;;;;;42.22;21.35;;;3.70;99.90;;;;;;5063036;28;20404;-57
2022/11/26 06:58:37;;;;;;;41.35;20.30;;;3.60;99.90;;;;;;5061410;28;20048;-58
2022/11/26 07:01:15;;;;;;;138.70;26.52;;;3.60;99.90;;;;;;5062308;28;20151;-57
2022/11/26 07:03:40;;;;;;;52.75;22.95;;;3.60;99.90;;;;;;5062981;28;20064;-57
2022/11/26 07:06:16;;;;;;;25.33;17.48;;;3.50;99.90;;;;;;5106571;27;20426;-57
2022/11/26 07:08:41;;;;;;;39.33;17.92;;;3.50;99.90;;;;;;5062289;28;20044;-58
2022/11/26 07:11:07;;;;;;;45.33;21.90;;;3.50;99.90;;;;;;5062933;28;20051;-58
2022/11/26 07:13:33;;;;;;;45.90;16.77;;;3.50;99.90;;;;;;5062574;28;20400;-58
2022/11/26 07:16:02;;;;;;;79.47;24.25;;;3.50;99.90;;;;;;5061753;28;20056;-57
2022/11/26 07:18:29;;;;;;;91.18;25.35;;;3.50;99.90;;;;;;5060933;28;20119;-57
2022/11/26 07:20:54;;;;;;;123.63;27.48;;;3.50;99.90;;;;;;5062423;28;20057;-56
2022/11/26 07:23:20;;;;;;;49.13;21.45;;;3.60;99.90;;;;;;5062376;28;20698;-57
2022/11/26 07:25:46;;;;;;;51.97;23.73;;;3.50;99.90;;;;;;5061604;28;20056;-58
2022/11/26 07:28:11;;;;;;;54.15;24.98;;;3.60;99.90;;;;;;5062707;28;20047;-57
2022/11/26 07:30:37;;;;;;;49.88;23.85;;;3.60;99.90;;;;;;5062904;28;20132;-57
2022/11/26 07:33:03;;;;;;;66.85;26.88;;;3.60;99.90;;;;;;5066538;28;20075;-57
2022/11/26 07:35:31;;;;;;;47.55;24.70;;;4.20;99.90;;;;;;5064407;28;20052;-57
2022/11/26 07:37:57;;;;;;;118.20;29.02;;;3.70;99.90;;;;;;5066851;28;20353;-59
2022/11/26 07:40:23;;;;;;;92.78;29.30;;;3.70;99.90;;;;;;5066797;28;20121;-57
2022/11/26 07:42:48;;;;;;;50.13;28.42;;;3.80;99.90;;;;;;5067196;28;20070;-62
2022/11/26 07:45:14;;;;;;;60.72;27.77;;;3.80;99.90;;;;;;5065233;28;20066;-58
2022/11/26 07:47:40;;;;;;;54.90;21.90;;;3.90;99.90;;;;;;5067046;28;20032;-58
2022/11/26 07:50:06;;;;;;;47.63;21.25;;;3.90;99.90;;;;;;5066492;28;20102;-58
2022/11/26 07:52:32;;;;;;;81.32;30.95;;;3.90;99.90;;;;;;5065914;28;20044;-58
2022/11/26 07:54:57;;;;;;;58.67;23.50;;;4.30;99.90;;;;;;5065454;28;20894;-58
2022/11/26 07:57:24;;;;;;;63.05;27.08;;;3.90;99.90;;;;;;5066877;28;20041;-58
2022/11/26 07:59:49;;;;;;;140.52;32.40;;;3.90;99.90;;;;;;5065228;28;20492;-58
2022/11/26 08:02:15;;;;;;;45.33;25.42;;;4.10;99.90;;;;;;5065899;28;20045;-57
2022/11/26 08:04:41;;;;;;;137.18;32.00;;;4.00;99.90;;;;;;5072932;28;20075;-58
2022/11/26 08:07:07;;;;;;;43.88;19.48;;;4.10;99.90;;;;;;5077636;28;20525;-58
2022/11/26 08:09:34;;;;;;;107.88;32.20;;;4.10;99.90;;;;;;5086358;28;20048;-57
2022/11/26 08:11:59;;;;;;;35.35;18.67;;;4.40;99.90;;;;;;5085499;28;20076;-58
2022/11/26 08:14:25;;;;;;;64.13;27.92;;;4.10;99.90;;;;;;5085737;28;20804;-58
2022/11/26 08:16:51;;;;;;;94.65;32.28;;;4.20;99.90;;;;;;5086058;28;20072;-58
2022/11/26 08:19:16;;;;;;;87.18;29.33;;;4.20;99.90;;;;;;5085441;28;20051;-59
2022/11/26 08:21:42;;;;;;;61.40;29.80;;;4.20;99.90;;;;;;5086015;28;20047;-57
2022/11/26 08:24:13;;;;;;;58.83;29.10;;;4.80;99.90;;;;;;5085600;28;20043;-56
2022/11/26 08:26:39;;;;;;;50.03;28.13;;;4.30;99.90;;;;;;5084841;28;20091;-58
2022/11/26 08:29:05;;;;;;;94.82;31.60;;;4.30;99.90;;;;;;5084592;28;20071;-58
2022/11/26 08:31:30;;;;;;;52.63;30.60;;;4.70;99.90;;;;;;5086113;28;20143;-59
2022/11/26 08:33:58;;;;;;;51.88;26.60;;;4.40;99.90;;;;;;5086250;28;20032;-58
2022/11/26 08:36:24;;;;;;;58.00;30.27;;;4.40;99.90;;;;;;5085724;28;20056;-58
2022/11/26 08:38:49;;;;;;;57.15;30.85;;;4.60;99.90;;;;;;5085835;28;20039;-58
2022/11/26 08:41:15;;;;;;;52.95;25.20;;;4.40;99.90;;;;;;5084893;28;20043;-57
2022/11/26 08:43:41;;;;;;;57.85;31.45;;;4.90;99.90;;;;;;5084197;28;20544;-58
2022/11/26 08:46:06;;;;;;;88.10;35.00;;;4.50;99.90;;;;;;5085289;28;20352;-58
2022/11/26 08:48:32;;;;;;;83.35;35.42;;;4.50;99.90;;;;;;5085413;28;20054;-57
2022/11/26 08:51:04;;;;;;;68.18;32.10;;;4.50;99.90;;;;;;5085753;28;20240;-58
2022/11/26 08:53:31;;;;;;;74.35;33.50;;;4.50;99.90;;;;;;5085830;28;20456;-58
2022/11/26 08:56:06;;;;;;;65.78;26.60;;;4.70;99.90;;;;;;5086052;28;20410;-58
2022/11/26 08:58:33;;;;;;;36.72;19.50;;;4.50;99.90;;;;;;5086155;28;20603;-58
2022/11/26 09:01:05;;;;;;;42.53;22.50;;;4.70;99.90;;;;;;5084745;28;20497;-57
2022/11/26 09:03:31;;;;;;;67.28;30.45;;;5.10;99.90;;;;;;5085930;28;20072;-58
2022/11/26 09:06:00;;;;;;;121.53;35.97;;;5.00;99.90;;;;;;5077126;28;20150;-58
2022/11/26 09:08:26;;;;;;;95.72;35.65;;;4.90;99.90;;;;;;5064885;28;20067;-57
2022/11/26 09:10:54;;;;;;;64.72;33.00;;;5.10;99.90;;;;;;5064234;28;20054;-58
2022/11/26 09:13:19;;;;;;;66.90;33.58;;;5.30;99.90;;;;;;5063266;28;20045;-58
2022/11/26 09:15:46;;;;;;;53.08;27.25;;;5.20;99.90;;;;;;5064124;28;20043;-58
2022/11/26 09:18:11;;;;;;;62.40;29.00;;;5.00;99.90;;;;;;5063864;28;20483;-58
2022/11/26 09:20:37;;;;;;;66.68;33.42;;;5.00;99.90;;;;;;5064892;28;20036;-57
2022/11/26 09:23:03;;;;;;;72.75;34.17;;;5.00;99.90;;;;;;5064809;28;20045;-58
2022/11/26 09:25:28;;;;;;;57.78;31.90;;;5.00;99.90;;;;;;5063820;28;20425;-58
2022/11/26 09:27:54;;;;;;;67.18;33.65;;;5.10;99.90;;;;;;5063831;28;20127;-57
2022/11/26 09:30:19;;;;;;;66.13;32.63;;;5.20;99.90;;;;;;5063424;28;20037;-58
2022/11/26 09:32:45;;;;;;;53.97;28.83;;;5.10;99.90;;;;;;5064778;28;20089;-58
2022/11/26 09:35:10;;;;;;;61.72;34.33;;;5.20;99.90;;;;;;5064398;28;20044;-57
2022/11/26 09:37:36;;;;;;;64.18;32.30;;;5.20;99.90;;;;;;5064055;28;20037;-56
2022/11/26 09:40:02;;;;;;;60.78;30.65;;;5.20;99.90;;;;;;5064139;28;20108;-58
2022/11/26 09:42:51;;;;;;;59.75;33.22;;;5.20;99.90;;;;;;5063122;28;20048;-57
2022/11/26 09:45:36;;;;;;;62.30;32.67;;;5.20;99.90;;;;;;5062578;28;20052;-58
2022/11/26 09:48:02;;;;;;;;;;;5.20;99.90;;;;;;5096820;28;20050;-57
2022/11/26 09:50:32;;;;;;;51.83;30.10;;;5.20;99.90;;;;;;5062391;28;20015;-57
2022/11/26 09:53:24;;;;;;;57.40;31.52;;;5.40;99.90;;;;;;5082303;28;20056;-56
2022/11/26 09:55:55;;;;;;;61.10;31.70;;;5.40;99.90;;;;;;5081999;28;20398;-63
2022/11/26 09:58:39;;;;;;;58.58;33.13;;;5.40;99.90;;;;;;5081675;28;20050;-64
2022/11/26 10:01:06;;;;;;;57.35;30.27;;;5.30;99.90;;;;;;5080714;28;20052;-63
2022/11/26 10:03:36;;;;;;;48.03;29.35;;;5.40;99.90;;;;;;5083221;28;20048;-63
2022/11/26 10:06:26;;;;;;;56.22;31.35;;;5.60;99.90;;;;;;5074237;28;20082;-64
2022/11/26 10:09:14;;;;;;;36.30;19.00;;;5.40;99.90;;;;;;5062648;28;20056;-63
2022/11/26 10:11:51;;;;;;;47.28;26.15;;;5.60;99.90;;;;;;5062435;28;20048;-63
2022/11/26 10:14:39;;;;;;;53.05;29.10;;;5.60;99.90;;;;;;5061813;28;20121;-63
2022/11/26 10:17:28;;;;;;;56.22;31.00;;;5.60;99.90;;;;;;5062349;28;20049;-64
2022/11/26 10:19:59;;;;;;;49.38;30.95;;;5.60;99.90;;;;;;5062870;28;20079;-64
2022/11/26 10:22:31;;;;;;;54.20;32.28;;;5.60;99.90;;;;;;5062449;28;20048;-64
2022/11/26 10:24:58;;;;;;;42.47;24.40;;;5.80;99.90;;;;;;5062945;28;20047;-63
2022/11/26 10:27:31;;;;;;;49.95;30.67;;;5.70;99.90;;;;;;5062368;28;20037;-63
2022/11/26 10:30:09;;;;;;;57.70;32.85;;;5.90;99.90;;;;;;5093914;28;20083;-64
2022/11/26 10:32:38;;;;;;;55.30;33.00;;;5.70;99.90;;;;;;5064079;28;20041;-63
2022/11/26 10:35:05;;;;;;;59.78;33.47;;;5.90;99.90;;;;;;5063129;28;20045;-63
2022/11/26 10:37:31;;;;;;;58.72;34.47;;;5.90;99.90;;;;;;5062494;28;20487;-63
2022/11/26 10:40:14;;;;;;;60.15;33.92;;;6.00;99.90;;;;;;5062587;28;20063;-63
2022/11/26 10:42:42;;;;;;;58.72;33.40;;;6.00;99.90;;;;;;5061706;28;20695;-64
2022/11/26 10:45:21;;;;;;;65.65;36.50;;;6.30;99.90;;;;;;5062351;28;20040;-65
2022/11/26 10:47:47;;;;;;;69.50;36.63;;;6.00;99.90;;;;;;5061186;28;20041;-63
2022/11/26 10:50:22;;;;;;;65.90;31.98;;;6.10;99.90;;;;;;5061727;28;20050;-63
2022/11/26 10:52:48;;;;;;;;;;;6.20;99.90;;;;;;5062998;28;20478;-63
2022/11/26 10:55:20;;;;;;;80.95;36.22;;;6.30;99.90;;;;;;5062469;28;19975;-63
2022/11/26 10:57:56;;;;;;;70.07;36.72;;;8.00;99.90;;;;;;5061489;28;20044;-63
2022/11/26 11:00:33;;;;;;;69.15;38.50;;;6.40;99.90;;;;;;5061161;28;20094;-61
2022/11/26 11:02:59;;;;;;;50.88;25.92;;;6.50;99.90;;;;;;5062854;28;20415;-60
2022/11/26 11:05:26;;;;;;;56.47;27.83;;;6.60;99.90;;;;;;5070185;28;20605;-61
2022/11/26 11:07:53;;;;;;;71.03;36.60;;;6.50;99.90;;;;;;5064752;28;20493;-60
2022/11/26 11:10:23;;;;;;;61.53;34.58;;;6.60;99.90;;;;;;5062420;28;20300;-61
2022/11/26 11:13:11;;;;;;;68.60;37.92;;;6.40;99.90;;;;;;5061922;28;20052;-61
2022/11/26 11:15:39;;;;;;;68.20;37.45;;;6.70;99.90;;;;;;5061113;28;20102;-61
2022/11/26 11:18:11;;;;;;;54.40;24.67;;;6.50;99.90;;;;;;5062801;28;20083;-61
2022/11/26 11:20:39;;;;;;;69.05;36.08;;;6.60;99.90;;;;;;5062578;28;20052;-62
2022/11/26 11:23:25;;;;;;;74.60;35.35;;;6.70;99.90;;;;;;5061193;28;20052;-62
2022/11/26 11:26:15;;;;;;;73.05;38.40;;;7.00;99.90;;;;;;5069692;28;20131;-61
2022/11/26 11:28:47;;;;;;;76.43;40.30;;;6.70;99.90;;;;;;5078474;28;20043;-62
2022/11/26 11:31:15;;;;;;;65.30;34.55;;;6.70;99.90;;;;;;5078851;28;20036;-61
2022/11/26 11:33:42;;;;;;;77.68;41.10;;;6.70;99.90;;;;;;5080950;28;20059;-62
2022/11/26 11:36:12;;;;;;;80.47;39.83;;;6.90;99.90;;;;;;5082177;28;20047;-62
2022/11/26 11:38:57;;;;;;;56.25;26.33;;;6.90;99.90;;;;;;5061752;28;20431;-61
2022/11/26 11:41:29;;;;;;;78.15;38.95;;;7.00;99.90;;;;;;5061850;28;20171;-62
2022/11/26 11:44:17;;;;;;;74.38;38.60;;;6.90;99.90;;;;;;5061004;28;20048;-62
2022/11/26 11:47:01;;;;;;;79.00;40.45;;;7.00;99.90;;;;;;5094406;28;20041;-62
2022/11/26 11:49:48;;;;;;;84.90;40.88;;;7.00;99.90;;;;;;5061091;28;20045;-62
2022/11/26 11:52:50;;;;;;;81.93;39.60;;;7.10;99.90;;;;;;5061812;28;20094;-62
2022/11/26 11:55:31;;;;;;;81.35;41.25;;;7.00;99.90;;;;;;5061549;28;20048;-61
2022/11/26 11:58:18;;;;;;;98.82;50.35;;;7.40;99.90;;;;;;5061385;28;20457;-61
2022/11/26 12:00:44;;;;;;;74.22;39.15;;;7.00;99.90;;;;;;5062369;28;20384;-62
2022/11/26 12:03:15;;;;;;;64.97;38.17;;;7.30;99.90;;;;;;5061246;28;20075;-62
2022/11/26 12:06:13;;;;;;;68.55;37.05;;;7.40;99.90;;;;;;5073587;28;20052;-62
2022/11/26 12:08:54;;;;;;;73.53;39.03;;;7.20;99.90;;;;;;5060740;28;20048;-62
2022/11/26 12:12:04;;;;;;;68.32;34.92;;;7.30;99.90;;;;;;5062058;28;20045;-61
2022/11/26 12:14:42;;;;;;;66.15;36.10;;;7.30;99.90;;;;;;5044135;28;20056;-62
2022/11/26 12:17:16;;;;;;;73.53;37.67;;;7.30;99.90;;;;;;5063008;28;20045;-63
2022/11/26 12:19:52;;;;;;;70.97;39.03;;;7.30;99.90;;;;;;5066255;28;20048;-62
2022/11/26 12:22:28;;;;;;;68.80;36.97;;;7.50;99.90;;;;;;5065776;28;20048;-62
2022/11/26 12:25:19;;;;;;;73.65;38.30;;;7.50;99.90;;;;;;5065372;28;20113;-63
2022/11/26 12:27:56;;;;;;;64.03;35.70;;;7.50;99.90;;;;;;5065296;28;20454;-60
2022/11/26 12:30:30;;;;;;;71.15;34.92;;;7.50;99.90;;;;;;5046194;28;20060;-60
2022/11/26 12:33:02;;;;;;;55.22;27.13;;;7.50;99.90;;;;;;5065252;28;20049;-60
2022/11/26 12:35:38;;;;;;;61.45;34.30;;;7.60;99.90;;;;;;5064428;28;20059;-63
2022/11/26 12:38:36;;;;;;;67.93;36.80;;;7.80;99.90;;;;;;5065280;28;20314;-61
2022/11/26 12:41:10;;;;;;;70.03;35.70;;;7.90;99.90;;;;;;5059659;28;20094;-60
2022/11/26 12:44:03;;;;;;;48.22;25.70;;;7.80;99.90;;;;;;5064473;28;20045;-61
2022/11/26 12:46:40;;;;;;;68.32;33.50;;;8.80;99.90;;;;;;5065377;28;20518;-60
2022/11/26 12:49:14;;;;;;;59.70;31.15;;;7.60;99.90;;;;;;5065208;28;20036;-61
2022/11/26 12:52:25;;;;;;;61.92;31.98;;;7.50;99.90;;;;;;5064600;28;20705;-60